New Germany, MN (55367)

10:57 AM CST on March 05, 2015 (GMT -0600)
Mayer, MN | Change Station
CLOSE
Current Station
Personal Weather Station
Location: Mayer, MN
Elevation: 977 ft
Nearby Weather Stations

Elev 977 ft 44.89 °N, 93.90 °W | Updated 3 seconds ago

Clear
Clear
9.5 °F
Feels Like -1 °F
N
6.0
Wind Variable Wind from South
Gusts 6.9 mph

Today
High -- | Low -- °F
--% Chance of Precip.
Yesterday
High -- | Low -- °F
Precip. -- in
6:46 AM 6:08 PM
Full, 100% visible
Pressure 30.49 in
Visibility 10.0 miles
Clouds Clear
Windchill -1 °F
Dew Point -0 °F
Humidity 63%
Rainfall in
Snow Depth Not available.
UV 4 out of 12
Pollen .50 out of 12
Air Quality Not available.
Flu Activity Not available.
METAR KGYL 051635Z AUTO 22005KT 10SM CLR M15/M19 A3049 RMK AO2 T11471191

More Conditions Fewer Conditions

Pressure 30.49 in
Visibility 10.0 miles
Clouds Clear
Windchill -1 °F
Dew Point -0 °F
Humidity 63%
Rainfall in
Snow Depth Not available.
UV 4 out of 12
Pollen .50 out of 12
Air Quality Not available.
Flu Activity Not available.
METAR KGYL 051635Z AUTO 22005KT 10SM CLR M15/M19 A3049 RMK AO2 T11471191

More Conditions Fewer Conditions

10-Day Weather Forecast

Almanac

Astronomy

Mar. 05, 2015 Rise Set
Actual Time
Civil Twilight
Nautical Twilight
Astronomical Twilight
Moon
Length of Visible Light
Length of Day
Tomorrow will be .
, % of the Moon is Illuminated

Today's Extremes

State Highs State Lows

Community

WunderPhotos

Upload Photos

1,802,851 photos uploaded!

WunderBlogs® & News

Nearby

Air Quality

  Air Quality AQ Index Pollutant
Not available.

Snow Depth

Station Depth Elevation

Earthquake Activity

City Distance Mag. Time & Date
Minimum magnitude displayed is 2.5.

Coastal Water Temperatures

Place Temperature

Nearby Weather Stations